Time;durP1;ratioP1;P1;durP2;ratioP2;P2;SDS_P1;SDS_P2;PMS_P1;PMS_P2;Temp;Humidity;BMP_temperature;BMP_pressure;BME280_temperature;BME280_humidity;BME280_pressure;Samples;Min_cycle;Max_cycle;Signal;HPM_P1;HPM_P2
2022/12/15 00:39:05;;;;;;;32.83;18.63;;;;;;;;;;4978776;28;20049;-93
2022/12/15 00:41:31;;;;;;;36.13;19.13;;;;;;;;;;4945291;28;20430;-91
2022/12/15 00:43:57;;;;;;;33.85;19.83;;;;;;;;;;4978296;28;20110;-93
2022/12/15 01:22:32;;;;;;;32.10;17.25;;;;;;;;;;4982327;28;20445;-93
2022/12/15 01:24:58;;;;;;;28.25;16.30;;;;;;;;;;4981794;28;20031;-94
2022/12/15 01:27:24;;;;;;;28.38;16.90;;;;;;;;;;4981998;28;20041;-95
2022/12/15 01:29:50;;;;;;;27.55;16.63;;;;;;;;;;4982087;28;20306;-93
2022/12/15 01:32:16;;;;;;;30.80;17.25;;;;;;;;;;4966186;28;20049;-94
2022/12/15 01:34:42;;;;;;;31.10;17.92;;;;;;;;;;4981915;28;20038;-93
2022/12/15 02:00:07;;;;;;;28.05;17.55;;;;;;;;;;4981519;28;20069;-93
2022/12/15 02:02:35;;;;;;;32.78;18.67;;;;;;;;;;4962904;28;20117;-93
2022/12/15 02:05:02;;;;;;;29.67;16.98;;;;;;;;;;4981048;28;20034;-94
2022/12/15 02:07:28;;;;;;;31.58;18.35;;;;;;;;;;4963608;28;20023;-93
2022/12/15 02:09:55;;;;;;;33.38;18.60;;;;;;;;;;4964219;28;20027;-93
2022/12/15 02:15:49;;;;;;;37.00;20.10;;;;;;;;;;4981296;28;20041;-93
2022/12/15 02:18:18;;;;;;;30.65;18.55;;;;;;;;;;4902928;29;20140;-94
2022/12/15 02:20:51;;;;;;;32.38;18.92;;;;;;;;;;4895397;29;20048;-95
2022/12/15 02:23:20;;;;;;;32.33;18.25;;;;;;;;;;4921727;29;20040;-93
2022/12/15 02:25:49;;;;;;;31.75;18.58;;;;;;;;;;4921662;29;20419;-95
2022/12/15 02:28:15;;;;;;;30.58;18.52;;;;;;;;;;4904143;29;20037;-92
2022/12/15 02:36:43;;;;;;;31.73;17.35;;;;;;;;;;4903020;29;20035;-94
2022/12/15 02:39:11;;;;;;;29.83;17.15;;;;;;;;;;4886693;29;20337;-94
2022/12/15 02:41:39;;;;;;;29.00;17.88;;;;;;;;;;4902382;29;20057;-93
2022/12/15 02:44:26;;;;;;;30.73;18.90;;;;;;;;;;4886918;29;20039;-94
2022/12/15 02:50:14;;;;;;;32.40;17.92;;;;;;;;;;4902908;29;20038;-94
2022/12/15 02:52:43;;;;;;;29.75;17.10;;;;;;;;;;4921171;29;20036;-95
2022/12/15 02:55:12;;;;;;;30.45;17.60;;;;;;;;;;4939519;29;20122;-94
2022/12/15 02:57:41;;;;;;;32.42;18.15;;;;;;;;;;4972905;28;20402;-93
2022/12/15 03:00:09;;;;;;;30.85;17.73;;;;;;;;;;4979598;28;20029;-95
2022/12/15 03:05:39;;;;;;;27.35;16.73;;;;;;;;;;4979847;28;20050;-92
2022/12/15 03:08:05;;;;;;;26.77;16.40;;;;;;;;;;4980080;28;20030;-92
2022/12/15 03:10:31;;;;;;;26.85;16.45;;;;;;;;;;4979955;28;20054;-94
2022/12/15 03:12:57;;;;;;;24.55;15.43;;;;;;;;;;4962081;28;20030;-94
2022/12/15 03:15:23;;;;;;;22.77;14.73;;;;;;;;;;4979787;28;20031;-93
2022/12/15 03:18:27;;;;;;;24.85;15.38;;;;;;;;;;4962806;28;20337;-94
2022/12/15 03:20:53;;;;;;;23.67;14.55;;;;;;;;;;4960414;29;20031;-94
2022/12/15 03:23:21;;;;;;;26.45;15.52;;;;;;;;;;4959392;29;20026;-92
2022/12/15 03:25:47;;;;;;;23.73;15.20;;;;;;;;;;4963853;28;20035;-94
2022/12/15 03:28:13;;;;;;;25.95;15.30;;;;;;;;;;4962437;28;20077;-93
2022/12/15 03:30:39;;;;;;;23.52;14.82;;;;;;;;;;4979241;28;20026;-95
2022/12/15 03:36:37;;;;;;;24.20;14.95;;;;;;;;;;4979709;28;20107;-94
2022/12/15 03:39:03;;;;;;;24.38;14.38;;;;;;;;;;4979160;28;20422;-94
2022/12/15 03:41:29;;;;;;;24.88;14.90;;;;;;;;;;4979221;28;20041;-94
2022/12/15 03:43:55;;;;;;;24.75;14.80;;;;;;;;;;4979185;28;20035;-94
2022/12/15 03:46:21;;;;;;;25.98;14.65;;;;;;;;;;4979341;28;20333;-93
2022/12/15 03:48:47;;;;;;;28.13;16.23;;;;;;;;;;4979462;28;20035;-93
2022/12/15 03:51:13;;;;;;;26.63;15.98;;;;;;;;;;4962112;28;20337;-93
2022/12/15 03:53:39;;;;;;;24.45;15.75;;;;;;;;;;4979228;28;20023;-93
2022/12/15 03:56:06;;;;;;;28.27;15.88;;;;;;;;;;4979072;28;20029;-95
2022/12/15 03:58:32;;;;;;;27.05;15.60;;;;;;;;;;4979052;28;20019;-94
2022/12/15 04:00:58;;;;;;;27.35;15.80;;;;;;;;;;4961880;28;20015;-93
2022/12/15 04:03:24;;;;;;;26.77;15.70;;;;;;;;;;4961703;28;20066;-95
2022/12/15 04:05:50;;;;;;;27.90;17.02;;;;;;;;;;4978887;28;20039;-95
2022/12/15 04:08:16;;;;;;;29.42;16.42;;;;;;;;;;4978813;28;20031;-94
2022/12/15 04:10:42;;;;;;;30.55;16.02;;;;;;;;;;4978742;28;20117;-94
2022/12/15 04:13:09;;;;;;;29.80;16.38;;;;;;;;;;4978597;28;20046;-95
2022/12/15 04:15:36;;;;;;;32.65;17.40;;;;;;;;;;4979083;28;20046;-95
2022/12/15 04:18:03;;;;;;;64.20;29.63;;;;;;;;;;4978408;28;20026;-94
2022/12/15 04:20:29;;;;;;;138.38;53.55;;;;;;;;;;4978957;28;20043;-96
2022/12/15 04:22:55;;;;;;;142.57;55.90;;;;;;;;;;4961602;28;20113;-95
2022/12/15 05:34:04;;;;;;;25.05;14.60;;;;;;;;;;4978426;28;20046;-94
2022/12/15 05:36:30;;;;;;;23.65;13.57;;;;;;;;;;4961601;28;20173;-94
2022/12/15 05:38:56;;;;;;;23.67;14.45;;;;;;;;;;4964410;28;21991;-94
2022/12/15 05:41:22;;;;;;;23.42;13.50;;;;;;;;;;4964487;28;20030;-94
2022/12/15 05:43:48;;;;;;;24.17;14.02;;;;;;;;;;4981357;28;20038;-94
2022/12/15 05:46:14;;;;;;;24.48;14.68;;;;;;;;;;4981813;28;20318;-93
2022/12/15 05:48:40;;;;;;;24.08;14.88;;;;;;;;;;4964171;28;20109;-94
2022/12/15 05:51:08;;;;;;;22.88;14.25;;;;;;;;;;4981681;28;20045;-93
2022/12/15 05:53:34;;;;;;;21.02;14.32;;;;;;;;;;4981411;28;20106;-93
2022/12/15 05:56:05;;;;;;;21.13;13.00;;;;;;;;;;4964189;28;20027;-95
2022/12/15 05:58:31;;;;;;;23.55;13.40;;;;;;;;;;4964372;28;20026;-94
2022/12/15 06:01:04;;;;;;;23.35;14.13;;;;;;;;;;4981404;28;20054;-93
2022/12/15 06:03:31;;;;;;;23.23;13.73;;;;;;;;;;4981340;28;20054;-93
2022/12/15 06:05:57;;;;;;;25.58;14.05;;;;;;;;;;4981116;28;20046;-94
2022/12/15 06:08:23;;;;;;;30.00;14.93;;;;;;;;;;4963956;28;20023;-93
2022/12/15 06:10:53;;;;;;;28.55;15.63;;;;;;;;;;4963539;28;20121;-94
2022/12/15 06:13:20;;;;;;;28.20;14.80;;;;;;;;;;4980710;28;20736;-93
2022/12/15 06:15:58;;;;;;;27.25;14.80;;;;;;;;;;4981028;28;20027;-94
2022/12/15 06:18:27;;;;;;;26.48;14.68;;;;;;;;;;4981047;28;20031;-94
2022/12/15 06:20:57;;;;;;;23.35;14.23;;;;;;;;;;4963662;28;20143;-94
2022/12/15 06:23:23;;;;;;;22.45;13.57;;;;;;;;;;4980518;28;20038;-92
2022/12/15 06:25:49;;;;;;;27.30;15.57;;;;;;;;;;4980662;28;20030;-92
2022/12/15 06:28:22;;;;;;;28.65;15.75;;;;;;;;;;4963173;28;20242;-93
2022/12/15 06:30:50;;;;;;;26.65;15.02;;;;;;;;;;4980799;28;20026;-94
2022/12/15 06:33:16;;;;;;;20.42;12.68;;;;;;;;;;4963739;28;20022;-92
2022/12/15 06:35:42;;;;;;;18.42;11.77;;;;;;;;;;4963420;28;20054;-92
2022/12/15 06:38:08;;;;;;;22.35;13.95;;;;;;;;;;4962937;28;20038;-94
2022/12/15 06:40:34;;;;;;;27.08;14.73;;;;;;;;;;4980520;28;20129;-94
2022/12/15 06:43:00;;;;;;;28.92;15.95;;;;;;;;;;4963410;28;20485;-93
2022/12/15 06:45:26;;;;;;;26.50;15.90;;;;;;;;;;4963246;28;20026;-93
2022/12/15 06:47:58;;;;;;;25.55;16.08;;;;;;;;;;4980022;28;20038;-94
2022/12/15 06:50:24;;;;;;;25.25;14.43;;;;;;;;;;4980923;28;20031;-93
2022/12/15 06:52:52;;;;;;;24.80;15.90;;;;;;;;;;4980499;28;20034;-94
2022/12/15 06:55:18;;;;;;;26.23;15.82;;;;;;;;;;4980257;28;20114;-93
2022/12/15 06:57:46;;;;;;;28.95;17.00;;;;;;;;;;4980473;28;20031;-93
2022/12/15 07:00:14;;;;;;;31.65;18.15;;;;;;;;;;4980104;28;20034;-94
2022/12/15 07:02:41;;;;;;;39.05;21.13;;;;;;;;;;4963015;28;20026;-93
2022/12/15 07:08:11;;;;;;;42.60;20.13;;;;;;;;;;4980313;28;20082;-96
2022/12/15 07:10:39;;;;;;;67.28;29.95;;;;;;;;;;4962600;28;20031;-93
2022/12/15 07:13:05;;;;;;;96.68;41.08;;;;;;;;;;4980024;28;20023;-93
2022/12/15 07:15:31;;;;;;;100.60;44.72;;;;;;;;;;4980038;28;20022;-93
2022/12/15 07:17:57;;;;;;;88.78;45.10;;;;;;;;;;4962815;28;20034;-95
2022/12/15 07:20:23;;;;;;;68.00;39.28;;;;;;;;;;4979992;28;20342;-94
2022/12/15 07:22:52;;;;;;;36.63;22.05;;;;;;;;;;4979761;28;20118;-94
2022/12/15 07:25:19;;;;;;;45.90;22.15;;;;;;;;;;4962494;28;20754;-94
2022/12/15 07:27:45;;;;;;;64.88;27.13;;;;;;;;;;4980015;28;20051;-94
2022/12/15 07:30:12;;;;;;;75.45;30.17;;;;;;;;;;4962735;28;20027;-93
2022/12/15 07:32:38;;;;;;;54.97;22.60;;;;;;;;;;4979820;28;20038;-94
2022/12/15 07:38:08;;;;;;;46.33;22.15;;;;;;;;;;4979770;28;20038;-94
2022/12/15 07:40:34;;;;;;;37.75;20.38;;;;;;;;;;4979445;28;20130;-92
2022/12/15 07:43:00;;;;;;;51.58;26.27;;;;;;;;;;4979318;28;20037;-94
2022/12/15 07:45:26;;;;;;;44.38;21.05;;;;;;;;;;4962319;28;20027;-94
2022/12/15 07:47:52;;;;;;;51.28;24.77;;;;;;;;;;4962283;28;20023;-94
2022/12/15 07:50:38;;;;;;;36.17;20.48;;;;;;;;;;4962277;28;20031;-94
2022/12/15 07:53:04;;;;;;;39.55;21.98;;;;;;;;;;4981307;28;20353;-94
2022/12/15 07:55:31;;;;;;;33.08;20.95;;;;;;;;;;4979602;28;20375;-94
2022/12/15 07:57:57;;;;;;;28.85;17.00;;;;;;;;;;4979013;28;20076;-94
2022/12/15 08:00:23;;;;;;;43.38;20.02;;;;;;;;;;4961117;28;20027;-93
2022/12/15 08:02:49;;;;;;;89.00;31.67;;;;;;;;;;4978769;28;20042;-95
2022/12/15 08:05:15;;;;;;;43.97;22.15;;;;;;;;;;4979352;28;20030;-93
2022/12/15 08:07:41;;;;;;;48.70;23.85;;;;;;;;;;4979769;28;20030;-94
2022/12/15 08:10:07;;;;;;;29.40;17.92;;;;;;;;;;4979377;28;20026;-95
2022/12/15 08:12:33;;;;;;;32.80;18.55;;;;;;;;;;4961472;28;20035;-94
2022/12/15 08:14:59;;;;;;;30.48;17.27;;;;;;;;;;4979215;28;20030;-94
2022/12/15 08:17:25;;;;;;;35.83;21.50;;;;;;;;;;4961364;28;20031;-95
2022/12/15 08:19:52;;;;;;;26.40;17.13;;;;;;;;;;4978840;28;20069;-95
2022/12/15 08:22:18;;;;;;;39.38;19.80;;;;;;;;;;4978741;28;20026;-94
2022/12/15 08:24:44;;;;;;;32.95;19.45;;;;;;;;;;4961552;28;20101;-96
2022/12/15 08:27:10;;;;;;;29.05;19.25;;;;;;;;;;4961812;28;20098;-94
2022/12/15 08:29:36;;;;;;;30.52;19.30;;;;;;;;;;4978939;28;20034;-93
2022/12/15 08:32:02;;;;;;;30.38;18.60;;;;;;;;;;4978909;28;20045;-94
2022/12/15 08:34:28;;;;;;;32.65;20.52;;;;;;;;;;4978791;28;20409;-95
2022/12/15 08:36:54;;;;;;;35.45;21.77;;;;;;;;;;4961710;28;20023;-95
2022/12/15 08:39:21;;;;;;;33.10;18.20;;;;;;;;;;4978271;28;20094;-93
2022/12/15 08:41:47;;;;;;;38.92;20.60;;;;;;;;;;4979075;28;20031;-95
2022/12/15 08:44:15;;;;;;;42.03;23.58;;;;;;;;;;4978800;28;20074;-94
2022/12/15 08:46:41;;;;;;;38.53;22.17;;;;;;;;;;4979011;28;20131;-95
2022/12/15 08:49:07;;;;;;;69.07;25.23;;;;;;;;;;4961848;28;20031;-96
2022/12/15 08:51:33;;;;;;;49.53;22.55;;;;;;;;;;4960271;28;20062;-95
2022/12/15 08:54:00;;;;;;;80.90;27.95;;;;;;;;;;4957653;29;20116;-94
2022/12/15 08:56:44;;;;;;;75.72;24.90;;;;;;;;;;4966587;29;20004;-96
2022/12/15 08:59:14;;;;;;;71.45;24.45;;;;;;;;;;4977437;28;20091;-92
2022/12/15 09:01:42;;;;;;;40.90;19.75;;;;;;;;;;4961342;28;20489;-94
2022/12/15 09:04:08;;;;;;;65.28;24.88;;;;;;;;;;4978324;28;20034;-94
2022/12/15 09:06:35;;;;;;;46.55;20.80;;;;;;;;;;4972516;28;20019;-94
2022/12/15 09:09:04;;;;;;;40.92;20.70;;;;;;;;;;4959640;28;20031;-92
2022/12/15 09:11:31;;;;;;;29.52;17.08;;;;;;;;;;4979180;28;20031;-93
2022/12/15 09:13:58;;;;;;;35.17;17.70;;;;;;;;;;4982644;28;20054;-94
2022/12/15 09:16:24;;;;;;;23.75;14.38;;;;;;;;;;4956795;29;20055;-93
2022/12/15 09:18:52;;;;;;;22.13;13.65;;;;;;;;;;4962604;29;20076;-93
2022/12/15 09:21:21;;;;;;;24.13;14.15;;;;;;;;;;4968668;28;20034;-94
2022/12/15 09:23:51;;;;;;;28.30;15.73;;;;;;;;;;4974102;28;20034;-93
2022/12/15 09:26:18;;;;;;;22.60;14.75;;;;;;;;;;4971023;28;20035;-93
2022/12/15 09:28:44;;;;;;;36.33;17.90;;;;;;;;;;4980110;28;20031;-96
2022/12/15 09:31:12;;;;;;;50.58;22.77;;;;;;;;;;4958689;29;20059;-96
2022/12/15 09:34:03;;;;;;;39.70;19.63;;;;;;;;;;4946176;29;20038;-91
2022/12/15 09:36:31;;;;;;;42.65;19.35;;;;;;;;;;4977857;28;20110;-94
2022/12/15 09:38:57;;;;;;;30.05;17.45;;;;;;;;;;4981691;28;20122;-94
2022/12/15 09:41:28;;;;;;;35.50;20.90;;;;;;;;;;4981767;28;20027;-94
2022/12/15 09:44:00;;;;;;;44.22;21.17;;;;;;;;;;4964421;28;20428;-95
2022/12/15 09:46:29;;;;;;;38.08;20.25;;;;;;;;;;4981747;28;20073;-94
2022/12/15 09:48:57;;;;;;;36.72;20.25;;;;;;;;;;4963676;28;20034;-94
2022/12/15 09:51:29;;;;;;;65.72;24.08;;;;;;;;;;4995457;28;20030;-94
2022/12/15 09:53:55;;;;;;;55.55;22.33;;;;;;;;;;5000787;28;20409;-95
2022/12/15 09:56:26;;;;;;;44.05;22.55;;;;;;;;;;5001100;28;20057;-94
2022/12/15 09:59:09;;;;;;;33.17;19.30;;;;;;;;;;5000861;28;20029;-94
2022/12/15 10:01:44;;;;;;;37.70;18.73;;;;;;;;;;4983638;28;20022;-94
2022/12/15 10:04:13;;;;;;;40.55;21.45;;;;;;;;;;5001524;28;20145;-93
2022/12/15 10:06:49;;;;;;;41.75;22.15;;;;;;;;;;5000687;28;20030;-94
2022/12/15 10:09:15;;;;;;;41.53;21.75;;;;;;;;;;5000654;28;20026;-94
2022/12/15 10:11:44;;;;;;;35.13;20.00;;;;;;;;;;4983538;28;20030;-94
2022/12/15 10:14:29;;;;;;;54.63;24.67;;;;;;;;;;5000642;28;20041;-94
2022/12/15 10:17:01;;;;;;;62.55;26.08;;;;;;;;;;5000827;28;20019;-93
2022/12/15 10:19:36;;;;;;;82.57;35.55;;;;;;;;;;4976164;28;20417;-94
2022/12/15 10:22:02;;;;;;;60.28;25.45;;;;;;;;;;4948820;28;20071;-95
2022/12/15 10:24:30;;;;;;;47.65;21.05;;;;;;;;;;4944711;29;20034;-93
2022/12/15 10:26:56;;;;;;;51.65;21.98;;;;;;;;;;4961877;29;20067;-93
2022/12/15 10:29:33;;;;;;;45.70;21.65;;;;;;;;;;4975370;28;20041;-94
2022/12/15 10:32:04;;;;;;;35.53;19.77;;;;;;;;;;4980864;28;20133;-94
2022/12/15 10:34:48;;;;;;;28.33;17.48;;;;;;;;;;4980581;28;20046;-95
2022/12/15 10:37:17;;;;;;;31.02;19.05;;;;;;;;;;4963157;28;20060;-94
2022/12/15 10:39:44;;;;;;;24.55;16.05;;;;;;;;;;4980370;28;20143;-93
2022/12/15 10:42:12;;;;;;;34.47;20.15;;;;;;;;;;4980391;28;20026;-94
2022/12/15 10:44:40;;;;;;;36.30;21.17;;;;;;;;;;4980802;28;20050;-93
2022/12/15 10:47:38;;;;;;;34.30;18.67;;;;;;;;;;4979512;28;20034;-93
2022/12/15 10:50:23;;;;;;;42.22;23.02;;;;;;;;;;4886703;29;20043;-93
2022/12/15 10:52:50;;;;;;;32.40;18.25;;;;;;;;;;4900933;29;20051;-94
2022/12/15 10:55:34;;;;;;;25.52;14.95;;;;;;;;;;4876654;29;20036;-94
2022/12/15 10:58:01;;;;;;;21.85;13.73;;;;;;;;;;4890181;29;20106;-95
2022/12/15 11:00:31;;;;;;;19.60;13.15;;;;;;;;;;4886671;29;20327;-95
2022/12/15 11:02:58;;;;;;;21.27;13.82;;;;;;;;;;4877945;29;20032;-95
2022/12/15 11:05:25;;;;;;;29.00;17.30;;;;;;;;;;4895391;29;20028;-93
2022/12/15 11:08:13;;;;;;;27.63;16.38;;;;;;;;;;4905253;29;20021;-95
2022/12/15 11:13:33;;;;;;;34.20;21.35;;;;;;;;;;4921189;29;20039;-94
2022/12/15 11:16:09;;;;;;;33.30;21.80;;;;;;;;;;4905511;29;20056;-95
2022/12/15 11:18:38;;;;;;;35.00;20.17;;;;;;;;;;4905433;29;20094;-94
2022/12/15 11:21:24;;;;;;;30.25;19.15;;;;;;;;;;4923837;29;20028;-95
2022/12/15 11:23:50;;;;;;;30.20;18.08;;;;;;;;;;4925995;29;20032;-96
2022/12/15 11:26:22;;;;;;;36.80;18.90;;;;;;;;;;4984762;28;20054;-96
2022/12/15 11:28:54;;;;;;;34.70;19.92;;;;;;;;;;5002105;28;20321;-96
2022/12/15 11:31:20;;;;;;;34.67;19.67;;;;;;;;;;4969194;28;20120;-96
2022/12/15 11:33:46;;;;;;;23.40;14.77;;;;;;;;;;5001107;28;20026;-95
2022/12/15 11:36:20;;;;;;;49.33;26.70;;;;;;;;;;5000359;28;20019;-95
2022/12/15 11:38:52;;;;;;;33.38;19.08;;;;;;;;;;4999346;28;20022;-94
2022/12/15 11:41:31;;;;;;;21.58;14.00;;;;;;;;;;4999575;28;20091;-95
2022/12/15 11:44:06;;;;;;;23.58;15.82;;;;;;;;;;4998930;28;20117;-95
2022/12/15 11:46:44;;;;;;;20.92;13.10;;;;;;;;;;4989929;28;20026;-95
2022/12/15 11:49:26;;;;;;;23.45;15.25;;;;;;;;;;4998970;28;20026;-93
2022/12/15 11:51:56;;;;;;;23.80;14.68;;;;;;;;;;4998647;28;20065;-94
2022/12/15 11:54:41;;;;;;;21.30;15.15;;;;;;;;;;4981496;28;20031;-93
2022/12/15 11:57:26;;;;;;;26.92;15.98;;;;;;;;;;4963297;28;20121;-94
2022/12/15 12:00:10;;;;;;;26.58;17.50;;;;;;;;;;4979401;28;20026;-94
2022/12/15 12:02:36;;;;;;;16.70;12.15;;;;;;;;;;4979440;28;20121;-93
2022/12/15 12:05:02;;;;;;;16.20;12.02;;;;;;;;;;4973689;28;20055;-94
2022/12/15 12:07:28;;;;;;;17.08;12.35;;;;;;;;;;4957045;28;20035;-95
2022/12/15 12:09:54;;;;;;;17.95;12.38;;;;;;;;;;4979417;28;20023;-94
2022/12/15 12:12:41;;;;;;;21.90;13.88;;;;;;;;;;4978833;28;20409;-93
2022/12/15 12:15:07;;;;;;;17.25;12.02;;;;;;;;;;4978806;28;20031;-93
2022/12/15 12:17:52;;;;;;;19.92;14.15;;;;;;;;;;4946325;28;20054;-93
2022/12/15 12:20:35;;;;;;;21.52;14.88;;;;;;;;;;4978985;28;20046;-94
2022/12/15 12:23:16;;;;;;;14.60;11.20;;;;;;;;;;4978644;28;20054;-92
2022/12/15 12:25:45;;;;;;;16.20;12.03;;;;;;;;;;4962082;28;20417;-93
2022/12/15 12:28:31;;;;;;;16.13;11.10;;;;;;;;;;4961679;28;20026;-93
2022/12/15 12:30:59;;;;;;;15.18;10.93;;;;;;;;;;4978577;28;20500;-92
2022/12/15 12:33:38;;;;;;;21.63;14.48;;;;;;;;;;4977440;28;20037;-95
2022/12/15 12:36:14;;;;;;;14.80;11.68;;;;;;;;;;4961780;28;20085;-94
2022/12/15 12:38:51;;;;;;;14.40;10.60;;;;;;;;;;4974687;28;20027;-93
2022/12/15 12:41:17;;;;;;;24.02;14.95;;;;;;;;;;4972072;28;20031;-94
2022/12/15 12:43:48;;;;;;;17.02;11.25;;;;;;;;;;4961700;28;20078;-94
2022/12/15 12:46:16;;;;;;;17.25;10.88;;;;;;;;;;4962933;28;20045;-94
2022/12/15 12:48:48;;;;;;;16.20;12.30;;;;;;;;;;4982502;28;20035;-93
2022/12/15 12:51:14;;;;;;;;;;;;;;;;;;4972294;28;20034;-95
2022/12/15 12:53:40;;;;;;;22.63;14.38;;;;;;;;;;4949253;28;19918;-93
2022/12/15 12:56:07;;;;;;;19.23;13.32;;;;;;;;;;4965445;28;20027;-94
2022/12/15 12:58:36;;;;;;;16.33;12.63;;;;;;;;;;4965153;28;20031;-94
2022/12/15 13:01:11;;;;;;;20.15;14.65;;;;;;;;;;4946221;29;20054;-94
2022/12/15 13:03:42;;;;;;;32.33;21.40;;;;;;;;;;4980007;28;20027;-94
2022/12/15 13:06:27;;;;;;;26.75;17.52;;;;;;;;;;4965509;28;20031;-92
2022/12/15 13:08:54;;;;;;;20.17;14.65;;;;;;;;;;4982510;28;20049;-94
2022/12/15 13:11:39;;;;;;;16.98;12.55;;;;;;;;;;4981526;28;20030;-94
2022/12/15 13:14:12;;;;;;;28.65;17.67;;;;;;;;;;4963022;28;20134;-91
2022/12/15 13:16:39;;;;;;;30.77;17.33;;;;;;;;;;4980614;28;20069;-92
2022/12/15 13:19:14;;;;;;;37.75;22.35;;;;;;;;;;4982506;28;20089;-94
2022/12/15 13:21:43;;;;;;;32.28;19.40;;;;;;;;;;4964969;28;20113;-95
2022/12/15 13:24:27;;;;;;;37.83;19.00;;;;;;;;;;4962920;28;20042;-95
2022/12/15 13:27:03;;;;;;;34.75;21.75;;;;;;;;;;4982140;28;20034;-96
2022/12/15 13:29:29;;;;;;;40.50;25.73;;;;;;;;;;4976119;28;20030;-95
2022/12/15 13:31:55;;;;;;;41.13;26.35;;;;;;;;;;4968613;28;20031;-96
2022/12/15 13:40:33;;;;;;;40.65;25.75;;;;;;;;;;4938349;29;20063;-94
2022/12/15 13:43:19;;;;;;;37.95;25.15;;;;;;;;;;4926298;29;20062;-94
2022/12/15 13:45:50;;;;;;;36.80;24.73;;;;;;;;;;4933055;29;20226;-95
2022/12/15 13:48:29;;;;;;;36.90;24.13;;;;;;;;;;4943804;29;20066;-93
2022/12/15 13:54:22;;;;;;;55.65;29.65;;;;;;;;;;5058072;23;20066;-96
2022/12/15 13:57:05;;;;;;;113.30;50.90;;;;;;;;;;4963215;28;20046;-93
2022/12/15 13:59:42;;;;;;;70.68;36.90;;;;;;;;;;4964109;28;20295;-94
2022/12/15 14:02:26;;;;;;;152.27;49.80;;;;;;;;;;4974409;28;20039;-93
2022/12/15 14:05:24;;;;;;;259.45;79.97;;;;;;;;;;4958373;29;20054;-94
2022/12/15 14:07:50;;;;;;;224.50;72.38;;;;;;;;;;4962139;29;20019;-95
2022/12/15 14:10:18;;;;;;;249.65;77.43;;;;;;;;;;4961791;29;20024;-93
2022/12/15 14:12:45;;;;;;;142.70;49.85;;;;;;;;;;4944788;28;20027;-91
2022/12/15 14:15:14;;;;;;;184.07;62.08;;;;;;;;;;4980817;28;20023;-95
2022/12/15 14:17:40;;;;;;;112.82;48.72;;;;;;;;;;4951425;29;20024;-94
2022/12/15 14:20:11;;;;;;;134.98;63.72;;;;;;;;;;4956563;28;20049;-93
2022/12/15 14:22:44;;;;;;;179.18;86.97;;;;;;;;;;4958663;29;20478;-95
2022/12/15 14:25:20;;;;;;;83.50;44.95;;;;;;;;;;4973187;28;20413;-94
2022/12/15 14:27:46;;;;;;;76.85;42.95;;;;;;;;;;4944757;29;20035;-94
2022/12/15 14:30:22;;;;;;;213.20;103.40;;;;;;;;;;4971878;28;20026;-95
2022/12/15 14:33:12;;;;;;;86.72;47.28;;;;;;;;;;4980888;28;20039;-94
2022/12/15 14:35:48;;;;;;;71.50;41.33;;;;;;;;;;4921786;29;20032;-94
2022/12/15 14:38:15;;;;;;;79.85;45.70;;;;;;;;;;4915406;29;20514;-93
2022/12/15 14:40:42;;;;;;;81.55;47.90;;;;;;;;;;4905886;29;20032;-93
2022/12/15 14:43:13;;;;;;;84.00;45.13;;;;;;;;;;4921720;29;20040;-93
2022/12/15 14:45:40;;;;;;;70.88;42.03;;;;;;;;;;4914603;29;20028;-95
2022/12/15 14:48:07;;;;;;;78.43;41.83;;;;;;;;;;4908613;29;20024;-94
2022/12/15 14:53:46;;;;;;;120.93;58.92;;;;;;;;;;4920513;29;20098;-94
2022/12/15 14:56:22;;;;;;;128.73;63.72;;;;;;;;;;4886396;29;20077;-93
2022/12/15 14:59:08;;;;;;;149.05;72.95;;;;;;;;;;4886612;29;20408;-94
2022/12/15 15:01:49;;;;;;;130.73;66.07;;;;;;;;;;4866252;29;20048;-93
2022/12/15 15:07:55;;;;;;;121.30;57.05;;;;;;;;;;4866744;29;20341;-93
2022/12/15 15:10:23;;;;;;;119.68;59.50;;;;;;;;;;4849460;29;20029;-92
2022/12/15 15:12:49;;;;;;;178.05;96.57;;;;;;;;;;4870984;29;20131;-94
2022/12/15 15:15:19;;;;;;;153.68;89.93;;;;;;;;;;4902119;29;20055;-94
2022/12/15 15:17:55;;;;;;;85.60;44.85;;;;;;;;;;4901948;29;20045;-92
2022/12/15 15:20:26;;;;;;;141.55;81.80;;;;;;;;;;4885980;29;20058;-93
2022/12/15 15:23:07;;;;;;;157.40;85.75;;;;;;;;;;4901818;29;20024;-92
2022/12/15 15:25:34;;;;;;;371.80;178.48;;;;;;;;;;4873545;29;20055;-94
2022/12/15 15:28:19;;;;;;;634.17;377.67;;;;;;;;;;4901243;29;20027;-92
2022/12/15 15:30:59;;;;;;;259.38;138.40;;;;;;;;;;4885249;29;20313;-91
2022/12/15 15:33:26;;;;;;;91.72;46.72;;;;;;;;;;4886152;29;20044;-88
2022/12/15 15:38:56;;;;;;;287.92;145.45;;;;;;;;;;4912136;29;20043;-94
2022/12/15 15:41:28;;;;;;;414.00;210.23;;;;;;;;;;4922839;29;20032;-95
2022/12/15 15:43:57;;;;;;;447.50;231.65;;;;;;;;;;4920881;29;20032;-94
2022/12/15 15:46:25;;;;;;;214.48;107.10;;;;;;;;;;4925130;29;20032;-93
2022/12/15 15:48:53;;;;;;;135.55;64.55;;;;;;;;;;4922125;29;20047;-93
2022/12/15 15:51:19;;;;;;;111.80;59.30;;;;;;;;;;4922403;29;20042;-93
2022/12/15 15:53:45;;;;;;;85.20;47.50;;;;;;;;;;4941126;28;20040;-94
2022/12/15 15:56:13;;;;;;;115.57;62.60;;;;;;;;;;4968413;28;20043;-94
2022/12/15 15:58:40;;;;;;;261.90;121.47;;;;;;;;;;4959718;29;20046;-94
2022/12/15 16:01:06;;;;;;;244.23;98.70;;;;;;;;;;4960419;29;20027;-93
2022/12/15 16:03:34;;;;;;;225.75;90.43;;;;;;;;;;4977510;28;20042;-93
2022/12/15 16:06:00;;;;;;;145.60;63.80;;;;;;;;;;4982279;28;20030;-93
2022/12/15 16:08:29;;;;;;;139.70;56.67;;;;;;;;;;4962362;28;20476;-94
2022/12/15 16:10:55;;;;;;;107.22;50.88;;;;;;;;;;4980327;28;20033;-91
2022/12/15 16:13:21;;;;;;;117.10;55.15;;;;;;;;;;4953944;29;20434;-93
2022/12/15 16:15:47;;;;;;;149.52;72.78;;;;;;;;;;4960267;29;20027;-94
2022/12/15 16:18:13;;;;;;;217.80;102.90;;;;;;;;;;4960688;29;20070;-91
2022/12/15 16:20:40;;;;;;;149.02;71.65;;;;;;;;;;4949637;28;20114;-93
2022/12/15 16:23:10;;;;;;;107.10;53.85;;;;;;;;;;4961903;28;20035;-94
2022/12/15 16:25:38;;;;;;;109.90;56.67;;;;;;;;;;4961832;28;20114;-94
2022/12/15 16:28:12;;;;;;;356.48;156.85;;;;;;;;;;4942662;29;20115;-94
2022/12/15 16:30:38;;;;;;;364.17;162.13;;;;;;;;;;4959937;28;20031;-95
2022/12/15 16:33:05;;;;;;;219.50;104.72;;;;;;;;;;4977496;28;20027;-92
2022/12/15 16:35:32;;;;;;;162.15;78.40;;;;;;;;;;4965710;28;20027;-96
2022/12/15 16:37:58;;;;;;;191.48;87.10;;;;;;;;;;4944400;29;20114;-95
2022/12/15 16:40:28;;;;;;;477.13;202.20;;;;;;;;;;4942338;29;20062;-95
2022/12/15 16:42:59;;;;;;;527.70;234.63;;;;;;;;;;4959360;29;20023;-95
2022/12/15 16:45:26;;;;;;;451.55;192.55;;;;;;;;;;4942399;29;20023;-93
2022/12/15 16:47:52;;;;;;;315.60;133.63;;;;;;;;;;4959642;29;20410;-94
2022/12/15 16:50:21;;;;;;;256.10;109.60;;;;;;;;;;4963915;28;20031;-93
2022/12/15 16:52:53;;;;;;;362.70;149.82;;;;;;;;;;4963197;28;20030;-91
2022/12/15 16:55:30;;;;;;;188.00;87.68;;;;;;;;;;4942659;29;20053;-93
2022/12/15 16:58:02;;;;;;;353.40;144.80;;;;;;;;;;4942762;29;20027;-93
2022/12/15 17:00:30;;;;;;;492.85;205.30;;;;;;;;;;4959530;29;20067;-91
2022/12/15 17:02:56;;;;;;;886.05;400.20;;;;;;;;;;4942226;29;20035;-96
2022/12/15 17:05:33;;;;;;;705.00;318.42;;;;;;;;;;4942631;29;20079;-92
2022/12/15 17:08:00;;;;;;;642.28;303.15;;;;;;;;;;4959140;29;20031;-92
2022/12/15 17:10:28;;;;;;;723.40;359.88;;;;;;;;;;4942202;29;20318;-92
2022/12/15 17:12:57;;;;;;;545.22;266.40;;;;;;;;;;4958716;29;20027;-95
2022/12/15 17:15:25;;;;;;;544.75;269.08;;;;;;;;;;4941956;29;20035;-94
2022/12/15 17:17:51;;;;;;;477.40;239.10;;;;;;;;;;4958887;29;20070;-93
2022/12/15 17:20:19;;;;;;;254.20;128.05;;;;;;;;;;4942074;29;20031;-93
2022/12/15 17:22:47;;;;;;;189.80;98.13;;;;;;;;;;4942023;29;20238;-93
2022/12/15 17:25:18;;;;;;;176.55;97.63;;;;;;;;;;4941930;29;20040;-92
2022/12/15 17:27:44;;;;;;;451.67;213.02;;;;;;;;;;4958632;29;20070;-93
2022/12/15 17:30:13;;;;;;;505.50;249.55;;;;;;;;;;4958817;29;20110;-94
2022/12/15 17:32:39;;;;;;;303.67;143.85;;;;;;;;;;4961424;28;20031;-93
2022/12/15 17:35:10;;;;;;;268.25;127.93;;;;;;;;;;4962412;29;20027;-94
2022/12/15 17:37:37;;;;;;;283.75;138.50;;;;;;;;;;4937456;23;20143;-93
2022/12/15 17:40:16;;;;;;;302.52;140.80;;;;;;;;;;4924193;29;20036;-93
2022/12/15 17:42:42;;;;;;;311.40;148.95;;;;;;;;;;4923350;29;20322;-94
2022/12/15 17:45:14;;;;;;;434.90;212.57;;;;;;;;;;4924768;29;20024;-92
2022/12/15 17:47:40;;;;;;;472.40;235.40;;;;;;;;;;4924572;29;20056;-94
2022/12/15 17:50:07;;;;;;;388.98;181.55;;;;;;;;;;4923126;29;20035;-94
2022/12/15 17:52:33;;;;;;;365.45;166.63;;;;;;;;;;4924180;29;20111;-92
2022/12/15 17:55:00;;;;;;;311.02;143.70;;;;;;;;;;4923937;29;20020;-92
2022/12/15 17:57:26;;;;;;;297.65;138.18;;;;;;;;;;4923918;29;20115;-93
2022/12/15 17:59:52;;;;;;;354.23;166.90;;;;;;;;;;4923952;29;20020;-93
2022/12/15 18:02:18;;;;;;;314.08;150.60;;;;;;;;;;4922935;29;20434;-93